createdAt,value
2023-05-17T00:02:17.140Z,12.80
2023-05-17T00:05:04.874Z,12.03
2023-05-17T00:07:52.314Z,12.43
2023-05-17T00:10:39.564Z,12.80
2023-05-17T00:13:26.993Z,13.00
2023-05-17T00:16:14.162Z,12.33
2023-05-17T00:19:01.541Z,12.60
2023-05-17T00:21:48.875Z,12.37
2023-05-17T00:24:36.295Z,13.07
2023-05-17T00:27:23.629Z,13.57
2023-05-17T00:30:11.076Z,13.03
2023-05-17T00:32:58.445Z,13.20
2023-05-17T00:35:45.719Z,12.83
2023-05-17T00:38:33.210Z,12.77
2023-05-17T00:41:20.592Z,12.40
2023-05-17T00:44:07.899Z,11.47
2023-05-17T00:46:55.172Z,12.23
2023-05-17T00:49:42.436Z,11.80
2023-05-17T00:52:29.773Z,12.43
2023-05-17T00:55:19.909Z,12.00
2023-05-17T00:58:07.285Z,12.10
2023-05-17T01:00:54.658Z,12.40
2023-05-17T01:03:42.194Z,11.77
2023-05-17T01:06:29.587Z,11.53
2023-05-17T01:09:17.796Z,11.00
2023-05-17T01:12:07.717Z,11.33
2023-05-17T01:15:19.709Z,11.90
2023-05-17T01:18:21.987Z,12.10
2023-05-17T01:21:33.993Z,11.80
2023-05-17T01:24:49.659Z,12.40
2023-05-17T01:27:40.196Z,13.03
2023-05-17T01:30:29.841Z,14.33
2023-05-17T01:33:19.796Z,15.00
2023-05-17T01:36:07.670Z,14.97
2023-05-17T01:38:54.969Z,14.70
2023-05-17T01:41:47.365Z,16.13
2023-05-17T01:44:40.678Z,15.80
2023-05-17T01:47:42.978Z,16.07
2023-05-17T01:50:35.816Z,15.83
2023-05-17T01:53:49.837Z,17.00
2023-05-17T01:56:43.286Z,15.97
2023-05-17T01:59:31.815Z,17.23
2023-05-17T02:02:19.744Z,16.20
2023-05-17T02:05:07.572Z,16.57
2023-05-17T02:07:54.790Z,17.30
2023-05-17T02:10:42.089Z,17.13
2023-05-17T02:13:29.494Z,16.80
2023-05-17T02:16:19.973Z,16.03
2023-05-17T02:19:09.256Z,17.10
2023-05-17T02:21:56.550Z,16.97
2023-05-17T02:24:43.984Z,15.20
2023-05-17T02:27:31.269Z,15.80
2023-05-17T02:30:18.580Z,15.73
2023-05-17T02:33:06.019Z,15.17
2023-05-17T02:35:53.457Z,16.73
2023-05-17T02:38:40.638Z,17.47
2023-05-17T02:41:27.991Z,17.13
2023-05-17T02:44:15.214Z,17.80
2023-05-17T02:47:02.604Z,17.53
2023-05-17T02:49:49.790Z,18.63
2023-05-17T02:52:37.368Z,18.90
2023-05-17T02:55:24.743Z,19.43
2023-05-17T02:58:12.031Z,18.80
2023-05-17T03:00:59.356Z,20.33
2023-05-17T03:03:47.105Z,21.20
2023-05-17T03:06:34.794Z,20.97
2023-05-17T03:09:22.815Z,21.57
2023-05-17T03:12:10.458Z,20.00
2023-05-17T03:14:58.220Z,21.03
2023-05-17T03:17:45.968Z,19.80
2023-05-17T03:20:33.410Z,20.30
2023-05-17T03:23:21.568Z,19.43
2023-05-17T03:26:08.785Z,21.67
2023-05-17T03:28:55.997Z,20.80
2023-05-17T03:31:43.361Z,21.43
2023-05-17T03:34:30.971Z,19.73
2023-05-17T03:37:18.453Z,20.83
2023-05-17T03:40:08.587Z,20.60
2023-05-17T03:42:55.936Z,19.93
2023-05-17T03:45:43.533Z,18.80
2023-05-17T03:48:31.417Z,18.07
2023-05-17T03:51:20.960Z,17.77
2023-05-17T03:54:08.250Z,18.30
2023-05-17T03:56:58.808Z,17.40
2023-05-17T03:59:46.156Z,17.60
2023-05-17T04:02:36.455Z,17.40
2023-05-17T04:05:23.880Z,17.30
2023-05-17T04:08:11.199Z,16.20
2023-05-17T04:10:58.461Z,16.80
2023-05-17T04:13:45.765Z,17.27
2023-05-17T04:16:33.258Z,16.67
2023-05-17T04:19:20.745Z,16.37
2023-05-17T04:22:08.174Z,16.63
2023-05-17T04:24:55.312Z,17.37
2023-05-17T04:27:42.656Z,17.37
2023-05-17T04:30:29.867Z,16.60
2023-05-17T04:33:18.068Z,16.77
2023-05-17T04:36:05.700Z,16.50
2023-05-17T04:38:52.877Z,15.87
2023-05-17T04:41:40.639Z,16.70
2023-05-17T04:44:27.948Z,16.07
2023-05-17T04:47:15.135Z,16.10
2023-05-17T04:50:05.004Z,15.53
2023-05-17T04:52:52.601Z,15.60
2023-05-17T04:55:40.205Z,15.67
2023-05-17T04:58:33.108Z,16.20
2023-05-17T05:01:20.550Z,14.87
2023-05-17T05:04:21.670Z,15.33
2023-05-17T05:07:11.761Z,15.30
2023-05-17T05:10:02.377Z,15.17
2023-05-17T05:12:52.690Z,15.90
2023-05-17T05:15:39.923Z,15.37
2023-05-17T05:18:27.418Z,15.73
2023-05-17T05:21:14.626Z,15.93
2023-05-17T05:24:01.934Z,15.80
2023-05-17T05:26:49.157Z,14.07
2023-05-17T05:29:37.109Z,14.23
2023-05-17T05:32:24.323Z,13.43
2023-05-17T05:35:11.769Z,13.30
2023-05-17T05:37:59.885Z,13.77
2023-05-17T05:40:48.405Z,13.93
2023-05-17T05:43:37.643Z,13.13
2023-05-17T05:46:26.147Z,12.73
2023-05-17T05:49:16.058Z,13.07
2023-05-17T05:52:06.130Z,12.63
2023-05-17T05:54:53.325Z,11.83
2023-05-17T05:57:40.741Z,12.20
2023-05-17T06:00:34.171Z,11.00
2023-05-17T06:03:21.621Z,11.33
2023-05-17T06:06:11.895Z,10.80
2023-05-17T06:08:59.756Z,10.87
2023-05-17T06:11:55.703Z,10.43
2023-05-17T06:14:46.409Z,10.17
2023-05-17T06:17:33.652Z,9.57
2023-05-17T06:20:21.216Z,8.77
2023-05-17T06:23:08.393Z,8.67
2023-05-17T06:25:55.886Z,8.90
2023-05-17T06:28:43.063Z,8.37
2023-05-17T06:31:33.096Z,8.07
2023-05-17T06:34:20.272Z,8.73
2023-05-17T06:37:07.514Z,8.37
2023-05-17T06:40:10.085Z,8.13
2023-05-17T06:43:02.488Z,7.93
2023-05-17T06:45:49.780Z,8.13
2023-05-17T06:48:37.018Z,7.67
2023-05-17T06:51:48.546Z,8.13
2023-05-17T06:54:36.039Z,8.80
2023-05-17T06:57:24.448Z,9.13
2023-05-17T07:00:13.150Z,9.40
2023-05-17T07:03:00.677Z,8.87
2023-05-17T07:05:48.083Z,8.70
2023-05-17T07:08:35.471Z,9.60
2023-05-17T07:11:22.685Z,9.33
2023-05-17T07:14:13.659Z,9.23
2023-05-17T07:17:04.191Z,9.10
2023-05-17T07:19:52.227Z,9.07
2023-05-17T07:22:39.486Z,8.20
2023-05-17T07:25:27.071Z,8.23
2023-05-17T07:28:14.458Z,8.47
2023-05-17T07:31:01.888Z,8.27
2023-05-17T07:33:49.191Z,8.40
2023-05-17T07:36:36.690Z,7.93
2023-05-17T07:39:23.885Z,7.97
2023-05-17T07:42:15.217Z,8.33
2023-05-17T07:45:02.612Z,8.10
2023-05-17T07:47:50.014Z,8.27
2023-05-17T07:50:37.428Z,8.20
2023-05-17T07:53:24.733Z,8.43
2023-05-17T07:56:12.390Z,9.00
2023-05-17T07:59:00.632Z,9.20
2023-05-17T08:01:48.622Z,8.13
2023-05-17T08:04:36.303Z,7.53
2023-05-17T08:07:23.992Z,7.50
2023-05-17T08:10:11.707Z,7.63
2023-05-17T08:12:58.960Z,8.60
2023-05-17T08:15:46.199Z,7.87
2023-05-17T08:18:33.896Z,8.53
2023-05-17T08:21:21.215Z,8.93
2023-05-17T08:24:09.296Z,8.40
2023-05-17T08:26:56.711Z,8.20
2023-05-17T08:29:44.259Z,8.00
2023-05-17T08:32:31.749Z,7.30
2023-05-17T08:35:29.027Z,6.83
2023-05-17T08:38:18.036Z,7.10
2023-05-17T08:41:09.023Z,6.50
2023-05-17T08:43:57.107Z,5.97
2023-05-17T08:46:53.873Z,6.50
2023-05-17T08:53:03.734Z,7.70
2023-05-17T08:55:51.615Z,8.10
2023-05-17T08:58:57.053Z,6.73
2023-05-17T09:01:48.007Z,6.50
2023-05-17T09:04:35.383Z,6.53
2023-05-17T09:07:23.190Z,6.17
2023-05-17T09:10:10.735Z,5.87
2023-05-17T09:12:58.230Z,6.13
2023-05-17T09:15:48.440Z,6.17
2023-05-17T09:18:35.876Z,6.43
2023-05-17T09:21:24.941Z,5.97
2023-05-17T09:24:12.423Z,6.30
2023-05-17T09:27:03.895Z,5.80
2023-05-17T09:29:51.167Z,6.23
2023-05-17T09:32:47.087Z,7.00
2023-05-17T09:35:36.262Z,7.17
2023-05-17T09:38:30.128Z,8.33
2023-05-17T09:41:17.318Z,8.17
2023-05-17T09:44:11.026Z,8.57
2023-05-17T09:47:01.767Z,8.20
2023-05-17T09:49:48.969Z,8.30
2023-05-17T09:52:37.164Z,9.60
2023-05-17T09:55:28.304Z,12.02
2023-05-17T09:58:20.985Z,9.40
2023-05-17T10:01:13.992Z,8.60
2023-05-17T10:04:03.024Z,8.63
2023-05-17T10:06:53.706Z,8.40
2023-05-17T10:09:43.052Z,8.13
2023-05-17T10:12:33.928Z,8.33
2023-05-17T10:15:24.998Z,8.20
2023-05-17T10:18:15.815Z,8.20
2023-05-17T10:21:03.486Z,9.60
2023-05-17T10:23:51.489Z,10.13
2023-05-17T10:26:39.455Z,10.30
2023-05-17T10:29:27.354Z,11.50
2023-05-17T10:32:21.745Z,12.23
2023-05-17T10:35:11.797Z,12.10
2023-05-17T10:37:59.788Z,11.80
2023-05-17T10:40:48.547Z,12.77
2023-05-17T10:43:38.316Z,13.30
2023-05-17T10:59:37.142Z,12.80
2023-05-17T11:03:08.925Z,10.97
2023-05-17T11:06:22.487Z,11.40
2023-05-17T11:25:29.394Z,10.03
2023-05-17T11:34:55.309Z,10.03
2023-05-17T11:37:44.731Z,10.30
2023-05-17T11:48:10.671Z,9.37
2023-05-17T11:51:28.153Z,8.57
2023-05-17T11:54:15.938Z,10.67
2023-05-17T11:57:04.748Z,10.03
2023-05-17T12:00:18.212Z,11.37
2023-05-17T12:03:21.748Z,10.73
2023-05-17T12:06:13.485Z,10.77
2023-05-17T12:09:01.364Z,10.50
2023-05-17T12:12:18.694Z,9.80
2023-05-17T12:16:25.807Z,9.93
2023-05-17T12:19:20.387Z,9.70
2023-05-17T12:22:13.049Z,8.23
2023-05-17T12:25:00.734Z,7.53
2023-05-17T12:27:48.140Z,7.63
2023-05-17T12:30:35.651Z,7.40
2023-05-17T12:33:23.235Z,7.13
2023-05-17T12:36:18.878Z,7.57
2023-05-17T12:39:09.715Z,7.53
2023-05-17T12:43:01.761Z,7.63
2023-05-17T13:21:07.214Z,8.87
2023-05-17T13:31:29.515Z,9.27
2023-05-17T13:34:16.705Z,9.23
2023-05-17T13:37:10.302Z,9.07
2023-05-17T13:40:19.016Z,9.70
2023-05-17T13:43:31.919Z,9.40
2023-05-17T13:46:19.180Z,9.03
2023-05-17T13:49:07.897Z,9.27
2023-05-17T13:51:55.286Z,9.20
2023-05-17T13:54:42.513Z,8.70
2023-05-17T13:58:02.865Z,8.43
2023-05-17T14:00:50.328Z,8.87
2023-05-17T14:03:37.912Z,8.27
2023-05-17T14:06:25.220Z,8.40
2023-05-17T14:09:12.448Z,8.90
2023-05-17T14:12:01.375Z,8.53
2023-05-17T14:14:48.745Z,9.00
2023-05-17T14:17:42.088Z,9.57
2023-05-17T14:20:29.638Z,9.60
2023-05-17T14:23:26.034Z,9.43
2023-05-17T14:26:13.312Z,9.23
2023-05-17T14:34:11.873Z,9.57
2023-05-17T14:36:59.302Z,10.00
2023-05-17T14:38:41.150Z,9.30
2023-05-17T14:43:09.637Z,9.60
2023-05-17T14:45:56.882Z,9.97
2023-05-17T14:48:44.220Z,9.30
2023-05-17T14:51:56.408Z,9.53
2023-05-17T14:54:43.821Z,9.57
2023-05-17T14:57:31.678Z,9.93
2023-05-17T15:00:19.865Z,10.70
2023-05-17T15:03:07.303Z,10.00
2023-05-17T15:05:55.779Z,10.13
2023-05-17T15:08:42.996Z,10.57
2023-05-17T15:11:33.820Z,10.50
2023-05-17T15:14:24.864Z,10.90
2023-05-17T15:17:24.276Z,11.37
2023-05-17T15:20:15.748Z,11.83
2023-05-17T15:23:03.320Z,11.47
2023-05-17T15:25:50.688Z,11.87
2023-05-17T15:28:38.258Z,10.63
2023-05-17T15:31:25.907Z,11.47
2023-05-17T15:34:13.333Z,10.93
2023-05-17T15:37:00.890Z,11.23
2023-05-17T15:39:53.247Z,9.83
2023-05-17T15:42:41.061Z,9.60
2023-05-17T15:45:28.910Z,7.87
2023-05-17T15:48:21.349Z,8.63
2023-05-17T15:51:08.649Z,8.07
2023-05-17T15:53:56.374Z,8.40
2023-05-17T15:56:43.535Z,8.07
2023-05-17T15:59:31.119Z,7.90
2023-05-17T16:02:27.510Z,8.20
2023-05-17T16:06:16.843Z,8.03
2023-05-17T16:09:04.256Z,7.73
2023-05-17T16:11:51.680Z,9.27
2023-05-17T16:14:40.774Z,9.13
2023-05-17T16:17:28.455Z,8.07
2023-05-17T16:20:15.883Z,9.10
2023-05-17T16:23:03.116Z,7.87
2023-05-17T16:25:50.299Z,7.30
2023-05-17T16:28:37.681Z,6.90
2023-05-17T16:31:25.111Z,7.47
2023-05-17T16:34:12.421Z,6.90
2023-05-17T16:36:59.823Z,7.27
2023-05-17T16:39:47.485Z,7.20
2023-05-17T16:42:34.692Z,8.17
2023-05-17T16:45:22.021Z,7.50
2023-05-17T16:48:09.480Z,7.67
2023-05-17T16:50:58.350Z,7.50
2023-05-17T16:53:45.671Z,8.10
2023-05-17T16:56:33.858Z,7.50
2023-05-17T16:59:21.809Z,7.77
2023-05-17T17:02:09.884Z,6.93
2023-05-17T17:04:58.560Z,7.13
2023-05-17T17:07:47.360Z,7.10
2023-05-17T17:10:36.142Z,7.03
2023-05-17T17:13:23.362Z,6.63
2023-05-17T17:16:11.328Z,6.87
2023-05-17T17:18:59.081Z,6.50
2023-05-17T17:21:46.411Z,6.70
2023-05-17T17:24:34.652Z,6.90
2023-05-17T17:27:21.826Z,6.57
2023-05-17T17:30:09.742Z,7.40
2023-05-17T17:32:57.133Z,7.00
2023-05-17T17:35:44.664Z,7.13
2023-05-17T17:38:32.229Z,7.07
2023-05-17T17:41:19.518Z,7.30
2023-05-17T17:44:06.789Z,7.37
2023-05-17T17:46:54.354Z,7.37
2023-05-17T17:49:41.766Z,7.70
2023-05-17T17:52:40.702Z,7.10
2023-05-17T17:55:27.992Z,7.47
2023-05-17T17:58:15.360Z,7.20
2023-05-17T18:01:02.726Z,7.90
2023-05-17T18:03:50.045Z,7.03
2023-05-17T18:06:37.452Z,7.60
2023-05-17T18:09:24.832Z,7.40
2023-05-17T18:12:12.262Z,7.10
2023-05-17T18:14:59.698Z,7.63
2023-05-17T18:17:48.813Z,6.60
2023-05-17T18:20:36.437Z,7.23
2023-05-17T18:23:24.604Z,7.50
2023-05-17T18:26:12.622Z,7.73
2023-05-17T18:29:00.519Z,6.93
2023-05-17T18:31:47.877Z,6.87
2023-05-17T18:34:36.147Z,6.70
2023-05-17T18:37:23.463Z,7.03
2023-05-17T18:40:37.176Z,6.37
2023-05-17T18:43:24.697Z,7.07
2023-05-17T18:46:15.148Z,7.30
2023-05-17T18:49:04.657Z,6.87
2023-05-17T18:51:52.165Z,6.90
2023-05-17T18:54:40.137Z,6.93
2023-05-17T18:57:27.938Z,7.23
2023-05-17T19:00:15.690Z,7.23
2023-05-17T19:03:04.500Z,6.30
2023-05-17T19:05:51.909Z,6.60
2023-05-17T19:08:39.357Z,7.30
2023-05-17T19:11:28.979Z,7.03
2023-05-17T19:14:16.605Z,7.17
2023-05-17T19:17:03.871Z,6.27
2023-05-17T19:19:51.135Z,6.20
2023-05-17T19:22:38.517Z,6.57
2023-05-17T19:25:29.000Z,7.17
2023-05-17T19:28:16.348Z,5.87
2023-05-17T19:31:04.146Z,5.80
2023-05-17T19:33:51.415Z,6.43
2023-05-17T19:36:38.746Z,5.90
2023-05-17T19:39:26.109Z,6.10
2023-05-17T19:42:13.760Z,6.13
2023-05-17T19:45:01.711Z,5.77
2023-05-17T19:47:49.017Z,6.17
2023-05-17T19:50:36.849Z,5.93
2023-05-17T19:53:24.102Z,5.67
2023-05-17T19:56:11.586Z,6.07
2023-05-17T19:58:58.755Z,5.90
2023-05-17T20:01:46.442Z,6.07
2023-05-17T20:04:33.759Z,5.90
2023-05-17T20:07:27.599Z,5.90
2023-05-17T20:10:14.942Z,6.13
2023-05-17T20:13:02.310Z,6.00
2023-05-17T20:15:49.521Z,6.07
2023-05-17T20:18:36.754Z,5.73
2023-05-17T20:21:25.270Z,5.60
2023-05-17T20:24:12.549Z,6.47
2023-05-17T20:27:00.560Z,6.30
2023-05-17T20:29:50.771Z,6.37
2023-05-17T20:32:38.553Z,5.67
2023-05-17T20:35:26.271Z,6.10
2023-05-17T20:38:13.524Z,6.10
2023-05-17T20:41:00.815Z,6.37
2023-05-17T20:43:54.887Z,6.63
2023-05-17T20:46:42.218Z,6.37
2023-05-17T20:49:29.789Z,6.63
2023-05-17T20:52:27.762Z,7.17
2023-05-17T20:55:25.169Z,6.40
2023-05-17T20:58:12.506Z,5.90
2023-05-17T21:01:01.251Z,6.50
2023-05-17T21:03:49.893Z,6.47
2023-05-17T21:06:37.591Z,6.83
2023-05-17T21:09:29.182Z,6.67
2023-05-17T21:12:16.655Z,6.13
2023-05-17T21:15:16.715Z,6.40
2023-05-17T21:18:09.615Z,7.00
2023-05-17T21:20:56.917Z,6.83
2023-05-17T21:23:44.084Z,6.40
2023-05-17T21:26:31.572Z,6.67
2023-05-17T21:29:18.942Z,6.10
2023-05-17T21:32:06.510Z,6.53
2023-05-17T21:34:54.506Z,6.40
2023-05-17T21:37:42.391Z,6.20
2023-05-17T21:40:30.130Z,6.50
2023-05-17T21:43:17.639Z,6.47
2023-05-17T21:46:05.038Z,6.77
2023-05-17T21:48:53.280Z,7.03
2023-05-17T21:51:42.705Z,5.93
2023-05-17T21:54:29.948Z,6.23
2023-05-17T21:57:17.369Z,6.03
2023-05-17T22:00:06.116Z,5.83
2023-05-17T22:03:04.263Z,4.57
2023-05-17T22:05:52.732Z,4.70
2023-05-17T22:08:42.433Z,4.37
2023-05-17T22:11:30.760Z,4.97
2023-05-17T22:14:17.930Z,4.13
2023-05-17T22:17:08.742Z,4.33
2023-05-17T22:19:58.110Z,3.90
2023-05-17T22:22:45.356Z,3.87
2023-05-17T22:25:32.573Z,3.70
2023-05-17T22:28:19.884Z,3.63
2023-05-17T22:31:07.664Z,3.27
2023-05-17T22:33:55.268Z,3.60
2023-05-17T22:36:45.172Z,3.30
2023-05-17T22:39:32.499Z,3.57
2023-05-17T22:42:19.770Z,3.90
2023-05-17T22:45:12.706Z,3.67
2023-05-17T22:48:05.802Z,3.40
2023-05-17T22:50:54.721Z,3.80
2023-05-17T22:53:42.010Z,3.27
2023-05-17T22:56:29.206Z,3.40
2023-05-17T22:59:19.025Z,2.90
2023-05-17T23:02:06.432Z,2.87
2023-05-17T23:04:53.933Z,2.50
2023-05-17T23:07:41.961Z,2.80
2023-05-17T23:10:29.727Z,2.50
2023-05-17T23:13:18.088Z,2.30
2023-05-17T23:16:06.100Z,2.00
2023-05-17T23:18:53.603Z,2.33
2023-05-17T23:21:40.856Z,2.00
2023-05-17T23:24:28.136Z,2.10
2023-05-17T23:27:15.284Z,2.07
2023-05-17T23:30:04.616Z,2.20
2023-05-17T23:32:52.370Z,2.50
2023-05-17T23:35:39.902Z,2.03
2023-05-17T23:38:27.110Z,2.40
2023-05-17T23:41:18.232Z,2.50
2023-05-17T23:44:08.427Z,2.07
2023-05-17T23:46:56.302Z,2.33
2023-05-17T23:49:43.859Z,2.30
2023-05-17T23:52:32.445Z,2.57
2023-05-17T23:55:22.244Z,2.30
2023-05-17T23:58:09.938Z,2.60
